createdAt,value
2022-10-30T00:02:21.773Z,30.10
2022-10-30T00:04:48.463Z,31.50
2022-10-30T00:07:15.001Z,29.80
2022-10-30T00:09:41.545Z,31.00
2022-10-30T00:12:08.183Z,31.50
2022-10-30T00:14:34.726Z,31.80
2022-10-30T00:17:01.142Z,35.20
2022-10-30T00:19:27.811Z,29.10
2022-10-30T00:21:54.243Z,31.30
2022-10-30T00:24:20.683Z,29.20
2022-10-30T00:26:47.148Z,28.50
2022-10-30T00:29:13.588Z,29.50
2022-10-30T00:31:40.114Z,28.20
2022-10-30T00:34:06.637Z,27.00
2022-10-30T00:36:33.112Z,26.90
2022-10-30T00:38:59.644Z,30.90
2022-10-30T00:41:26.161Z,29.70
2022-10-30T00:43:53.252Z,33.00
2022-10-30T00:46:39.717Z,33.00
2022-10-30T00:49:12.553Z,32.30
2022-10-30T00:51:46.353Z,32.70
2022-10-30T00:54:16.397Z,34.10
2022-10-30T00:56:44.721Z,36.40
2022-10-30T00:59:17.025Z,37.40
2022-10-30T01:01:46.379Z,35.20
2022-10-30T01:04:14.392Z,37.00
2022-10-30T01:06:45.042Z,35.80
2022-10-30T01:09:11.573Z,33.50
2022-10-30T01:11:38.086Z,33.20
2022-10-30T01:14:07.284Z,32.80
2022-10-30T01:16:50.619Z,32.00
2022-10-30T01:19:52.678Z,30.50
2022-10-30T01:22:26.469Z,32.10
2022-10-30T01:25:11.783Z,31.70
2022-10-30T01:28:16.418Z,30.80
2022-10-30T01:30:58.320Z,29.60
2022-10-30T01:33:46.675Z,30.60
2022-10-30T01:36:22.430Z,30.60
2022-10-30T01:39:00.032Z,30.50
2022-10-30T01:41:26.965Z,31.30
2022-10-30T01:43:58.540Z,31.50
2022-10-30T01:46:30.913Z,30.90
2022-10-30T01:49:38.538Z,27.70
2022-10-30T01:52:26.161Z,29.70
2022-10-30T01:55:20.867Z,27.40
2022-10-30T01:58:15.667Z,30.20
2022-10-30T02:00:45.494Z,31.00
2022-10-30T02:03:12.753Z,29.00
2022-10-30T02:05:44.089Z,28.90
2022-10-30T02:10:38.403Z,28.00
2022-10-30T02:13:05.688Z,25.90
2022-10-30T02:15:32.901Z,26.00
2022-10-30T02:18:00.013Z,24.60
2022-10-30T02:20:27.107Z,26.60
2022-10-30T02:22:58.022Z,26.80
2022-10-30T02:25:25.926Z,26.50
2022-10-30T02:27:52.670Z,24.10
2022-10-30T02:30:19.311Z,24.80
2022-10-30T02:32:45.975Z,25.80
2022-10-30T02:35:12.545Z,25.00
2022-10-30T02:37:39.231Z,24.90
2022-10-30T02:40:06.778Z,24.80
2022-10-30T02:42:33.335Z,24.60
2022-10-30T02:44:59.735Z,25.10
2022-10-30T02:47:26.517Z,24.40
2022-10-30T02:49:52.979Z,24.50
2022-10-30T02:52:19.450Z,24.10
2022-10-30T02:54:45.933Z,22.70
2022-10-30T02:57:12.471Z,23.90
2022-10-30T02:59:39.018Z,23.80
2022-10-30T03:02:05.517Z,24.00
2022-10-30T03:04:32.082Z,24.00
2022-10-30T03:06:58.630Z,25.70
2022-10-30T03:09:25.177Z,33.00
2022-10-30T03:11:51.709Z,35.90
2022-10-30T03:14:18.250Z,31.70
2022-10-30T03:16:44.787Z,27.10
2022-10-30T03:19:11.335Z,28.60
2022-10-30T03:21:39.685Z,25.30
2022-10-30T03:24:06.353Z,29.80
2022-10-30T03:26:32.818Z,29.60
2022-10-30T03:28:59.346Z,31.80
2022-10-30T03:31:25.978Z,29.50
2022-10-30T03:33:52.519Z,27.60
2022-10-30T03:36:18.954Z,29.00
2022-10-30T03:38:45.413Z,27.60
2022-10-30T03:41:11.870Z,29.20
2022-10-30T03:43:38.380Z,24.80
2022-10-30T03:46:05.018Z,22.40
2022-10-30T03:48:31.477Z,22.80
2022-10-30T03:50:59.633Z,24.40
2022-10-30T03:53:27.618Z,23.50
2022-10-30T03:55:58.656Z,28.40
2022-10-30T03:58:25.916Z,26.10
2022-10-30T04:00:52.645Z,24.70
2022-10-30T04:03:19.284Z,23.50
2022-10-30T04:05:45.923Z,23.90
2022-10-30T04:08:14.399Z,23.50
2022-10-30T04:10:46.441Z,24.00
2022-10-30T04:13:15.884Z,22.50
2022-10-30T04:15:43.040Z,21.90
2022-10-30T04:18:11.985Z,22.40
2022-10-30T04:20:39.009Z,23.10
2022-10-30T04:23:07.532Z,21.30
2022-10-30T04:25:35.536Z,22.40
2022-10-30T04:28:03.008Z,22.40
2022-10-30T04:30:29.957Z,23.20
2022-10-30T04:32:58.018Z,24.30
2022-10-30T04:35:26.939Z,24.30
2022-10-30T04:37:55.550Z,23.50
2022-10-30T04:40:24.275Z,23.80
2022-10-30T04:42:51.750Z,24.10
2022-10-30T04:45:18.824Z,23.40
2022-10-30T04:47:46.125Z,23.80
2022-10-30T04:50:13.967Z,23.50
2022-10-30T04:52:41.122Z,24.40
2022-10-30T04:55:09.837Z,24.80
2022-10-30T04:57:37.159Z,24.10
2022-10-30T05:00:08.252Z,24.50
2022-10-30T05:02:36.251Z,23.20
2022-10-30T05:05:04.251Z,29.20
2022-10-30T05:07:30.997Z,27.20
2022-10-30T05:09:57.536Z,27.90
2022-10-30T05:12:24.073Z,25.70
2022-10-30T05:14:50.613Z,26.00
2022-10-30T05:17:17.207Z,26.50
2022-10-30T05:19:43.748Z,26.00
2022-10-30T05:22:10.235Z,25.70
2022-10-30T05:24:36.701Z,26.70
2022-10-30T05:27:03.212Z,26.60
2022-10-30T05:29:29.750Z,26.70
2022-10-30T05:31:56.291Z,25.30
2022-10-30T05:34:22.830Z,25.00
2022-10-30T05:36:49.303Z,24.50
2022-10-30T05:39:15.805Z,24.20
2022-10-30T05:41:42.234Z,24.20
2022-10-30T05:44:08.675Z,24.90
2022-10-30T05:46:35.313Z,24.30
2022-10-30T05:49:01.855Z,23.70
2022-10-30T05:51:28.265Z,24.80
2022-10-30T05:53:54.840Z,25.90
2022-10-30T05:56:21.376Z,27.40
2022-10-30T05:58:51.086Z,27.20
2022-10-30T06:01:17.874Z,26.80
2022-10-30T06:03:45.087Z,25.60
2022-10-30T06:06:12.139Z,26.40
2022-10-30T06:08:38.930Z,23.50
2022-10-30T06:11:05.398Z,24.10
2022-10-30T06:13:31.971Z,23.10
2022-10-30T06:15:58.500Z,23.40
2022-10-30T06:18:25.043Z,23.40
2022-10-30T06:20:51.582Z,20.80
2022-10-30T06:23:18.225Z,20.50
2022-10-30T06:25:44.675Z,18.70
2022-10-30T06:28:11.622Z,17.70
2022-10-30T06:30:38.237Z,17.40
2022-10-30T06:33:06.235Z,18.50
2022-10-30T06:35:32.875Z,19.50
2022-10-30T06:37:59.672Z,17.30
2022-10-30T06:40:27.703Z,16.90
2022-10-30T06:42:54.448Z,16.00
2022-10-30T06:45:23.439Z,14.80
2022-10-30T06:47:50.494Z,13.20
2022-10-30T06:50:20.336Z,12.10
2022-10-30T06:52:46.856Z,11.20
2022-10-30T06:55:13.388Z,11.00
2022-10-30T06:57:40.035Z,11.00
2022-10-30T07:00:07.904Z,10.30
2022-10-30T07:02:35.059Z,10.30
2022-10-30T07:05:01.569Z,10.30
2022-10-30T07:07:28.751Z,9.90
2022-10-30T07:09:55.294Z,11.20
2022-10-30T07:12:21.724Z,12.40
2022-10-30T07:14:48.170Z,13.20
2022-10-30T07:17:14.706Z,12.50
2022-10-30T07:19:41.250Z,10.90
2022-10-30T07:22:07.697Z,8.70
2022-10-30T07:24:34.226Z,8.40
2022-10-30T07:27:00.670Z,8.70
2022-10-30T07:29:27.206Z,9.10
2022-10-30T07:32:08.322Z,7.90
2022-10-30T07:34:35.033Z,8.10
2022-10-30T07:37:01.625Z,8.60
2022-10-30T07:39:28.103Z,7.90
2022-10-30T07:41:54.661Z,8.00
2022-10-30T07:44:21.083Z,7.70
2022-10-30T07:46:47.828Z,7.90
2022-10-30T07:49:14.478Z,7.80
2022-10-30T07:51:41.010Z,6.80
2022-10-30T07:54:07.551Z,7.50
2022-10-30T07:56:34.097Z,6.70
2022-10-30T07:59:00.636Z,7.30
2022-10-30T08:01:27.180Z,7.80
2022-10-30T08:03:53.818Z,8.40
2022-10-30T08:06:23.218Z,8.60
2022-10-30T08:08:53.144Z,8.30
2022-10-30T08:11:19.690Z,9.00
2022-10-30T08:13:46.425Z,9.60
2022-10-30T08:16:12.877Z,9.20
2022-10-30T08:18:39.414Z,9.20
2022-10-30T08:21:06.051Z,9.10
2022-10-30T08:23:32.472Z,8.90
2022-10-30T08:25:59.027Z,9.40
2022-10-30T08:28:29.897Z,8.50
2022-10-30T08:31:00.721Z,8.80
2022-10-30T08:33:27.170Z,9.50
2022-10-30T08:35:56.272Z,9.60
2022-10-30T08:38:23.020Z,10.00
2022-10-30T08:40:49.499Z,9.70
2022-10-30T08:43:16.685Z,8.90
2022-10-30T08:45:43.638Z,7.80
2022-10-30T08:48:12.355Z,8.00
2022-10-30T08:50:38.868Z,7.90
2022-10-30T08:53:07.385Z,8.00
2022-10-30T08:55:34.934Z,7.90
2022-10-30T08:58:02.121Z,6.70
2022-10-30T09:00:29.913Z,6.80
2022-10-30T09:02:57.022Z,5.30
2022-10-30T09:05:24.048Z,4.30
2022-10-30T09:07:56.719Z,4.30
2022-10-30T09:10:23.943Z,4.60
2022-10-30T09:12:58.308Z,4.00
2022-10-30T09:15:26.132Z,4.20
2022-10-30T09:18:03.252Z,3.70
2022-10-30T09:20:31.045Z,4.30
2022-10-30T09:22:58.391Z,4.00
2022-10-30T09:25:25.459Z,4.00
2022-10-30T09:27:51.898Z,4.00
2022-10-30T09:30:18.437Z,3.70
2022-10-30T09:32:44.979Z,4.30
2022-10-30T09:35:11.623Z,4.10
2022-10-30T09:37:39.470Z,3.80
2022-10-30T09:40:07.882Z,4.10
2022-10-30T09:42:42.437Z,3.50
2022-10-30T09:45:29.792Z,3.80
2022-10-30T09:48:22.283Z,4.20
2022-10-30T09:50:51.587Z,4.60
2022-10-30T09:53:33.833Z,4.40
2022-10-30T09:56:34.430Z,5.10
2022-10-30T09:59:17.765Z,5.20
2022-10-30T10:01:52.603Z,5.20
2022-10-30T10:04:31.228Z,5.70
2022-10-30T10:07:07.600Z,4.90
2022-10-30T10:09:36.322Z,5.30
2022-10-30T10:12:08.057Z,5.10
2022-10-30T10:14:39.665Z,5.80
2022-10-30T10:17:13.835Z,5.20
2022-10-30T10:19:57.507Z,5.60
2022-10-30T10:22:39.496Z,5.40
2022-10-30T10:25:12.666Z,5.50
2022-10-30T10:27:57.538Z,4.90
2022-10-30T10:30:26.648Z,6.10
2022-10-30T10:33:15.103Z,6.90
2022-10-30T10:36:00.074Z,5.60
2022-10-30T10:38:50.354Z,5.30
2022-10-30T10:41:25.501Z,6.00
2022-10-30T10:44:10.664Z,5.80
2022-10-30T10:47:09.393Z,6.00
2022-10-30T10:50:23.736Z,6.40
2022-10-30T10:52:57.893Z,6.60
2022-10-30T10:55:35.385Z,5.90
2022-10-30T10:58:13.152Z,5.50
2022-10-30T11:00:41.003Z,5.40
2022-10-30T11:06:18.189Z,5.80
2022-10-30T11:08:45.137Z,4.90
2022-10-30T11:11:11.745Z,4.90
2022-10-30T11:13:41.350Z,4.80
2022-10-30T11:16:30.521Z,4.60
2022-10-30T11:19:03.722Z,4.80
2022-10-30T11:21:42.019Z,5.70
2022-10-30T11:24:31.707Z,5.00
2022-10-30T11:27:16.161Z,4.50
2022-10-30T11:29:49.284Z,4.30
2022-10-30T11:32:20.296Z,5.20
2022-10-30T11:34:46.960Z,4.50
2022-10-30T11:37:33.225Z,4.30
2022-10-30T11:40:08.299Z,5.60
2022-10-30T11:42:36.235Z,5.20
2022-10-30T11:45:04.739Z,5.30
2022-10-30T11:47:37.633Z,5.30
2022-10-30T11:50:26.210Z,5.20
2022-10-30T11:52:57.729Z,5.30
2022-10-30T11:55:34.721Z,5.00
2022-10-30T11:58:02.252Z,5.50
2022-10-30T12:00:32.921Z,5.00
2022-10-30T12:03:01.241Z,5.90
2022-10-30T12:05:38.456Z,4.90
2022-10-30T12:08:07.702Z,5.60
2022-10-30T12:10:41.167Z,4.90
2022-10-30T12:13:16.037Z,5.10
2022-10-30T12:15:44.644Z,4.40
2022-10-30T12:20:58.689Z,5.40
2022-10-30T12:23:27.583Z,5.00
2022-10-30T12:26:11.698Z,4.70
2022-10-30T12:28:39.503Z,4.80
2022-10-30T12:31:12.878Z,4.80
2022-10-30T12:33:51.017Z,5.20
2022-10-30T12:36:21.683Z,5.30
2022-10-30T12:41:43.611Z,4.90
2022-10-30T12:44:29.365Z,4.90
2022-10-30T12:47:27.174Z,4.90
2022-10-30T12:50:18.646Z,5.10
2022-10-30T12:53:06.166Z,5.00
2022-10-30T12:55:48.024Z,5.00
2022-10-30T12:58:19.832Z,4.90
2022-10-30T13:00:54.735Z,5.40
2022-10-30T13:03:32.769Z,5.10
2022-10-30T13:06:08.383Z,4.70
2022-10-30T13:08:39.888Z,5.00
2022-10-30T13:11:25.321Z,5.00
2022-10-30T13:13:55.352Z,4.80
2022-10-30T13:16:32.228Z,5.20
2022-10-30T13:19:03.184Z,4.90
2022-10-30T13:21:56.230Z,4.70
2022-10-30T13:24:57.904Z,5.40
2022-10-30T13:27:51.775Z,4.40
2022-10-30T13:30:23.385Z,5.40
2022-10-30T13:33:20.305Z,4.80
2022-10-30T13:36:01.930Z,4.40
2022-10-30T13:38:46.818Z,5.20
2022-10-30T13:41:40.997Z,5.10
2022-10-30T13:44:16.536Z,5.10
2022-10-30T13:47:03.200Z,4.80
2022-10-30T13:49:41.722Z,5.20
2022-10-30T13:52:16.660Z,5.20
2022-10-30T13:55:19.351Z,5.50
2022-10-30T13:57:56.540Z,4.90
2022-10-30T14:00:45.575Z,5.80
2022-10-30T14:03:22.627Z,5.10
2022-10-30T14:05:54.048Z,4.50
2022-10-30T14:08:25.842Z,4.70
2022-10-30T14:10:59.350Z,4.10
2022-10-30T14:13:44.076Z,4.80
2022-10-30T14:16:36.523Z,5.10
2022-10-30T14:19:04.390Z,4.40
2022-10-30T14:21:44.696Z,4.80
2022-10-30T14:24:29.496Z,4.60
2022-10-30T14:27:05.485Z,4.70
2022-10-30T14:29:34.858Z,4.80
2022-10-30T14:32:02.095Z,4.90
2022-10-30T14:35:01.249Z,4.80
2022-10-30T14:37:27.687Z,4.90
2022-10-30T14:39:55.762Z,4.90
2022-10-30T14:42:51.183Z,4.90
2022-10-30T14:45:29.498Z,4.40
2022-10-30T14:48:27.272Z,4.20
2022-10-30T14:51:12.553Z,4.70
2022-10-30T14:53:52.094Z,5.20
2022-10-30T14:56:29.694Z,5.90
2022-10-30T14:59:09.837Z,5.50
2022-10-30T15:01:45.486Z,5.20
2022-10-30T15:04:18.392Z,5.60
2022-10-30T15:07:13.067Z,5.80
2022-10-30T15:10:03.022Z,5.90
2022-10-30T15:13:03.359Z,5.70
2022-10-30T15:15:30.674Z,5.80
2022-10-30T15:18:01.468Z,6.30
2022-10-30T15:23:03.030Z,6.50
2022-10-30T15:28:01.449Z,6.70
2022-10-30T15:30:28.466Z,7.40
2022-10-30T15:32:55.196Z,8.50
2022-10-30T15:35:27.355Z,8.90
2022-10-30T15:38:07.767Z,9.90
2022-10-30T15:40:36.327Z,11.10
2022-10-30T15:43:05.389Z,11.90
2022-10-30T15:45:37.338Z,12.70
2022-10-30T15:48:19.446Z,14.10
2022-10-30T15:51:00.893Z,15.00
2022-10-30T15:53:36.461Z,14.40
2022-10-30T15:56:04.584Z,17.90
2022-10-30T15:58:34.960Z,18.40
2022-10-30T16:01:02.257Z,17.10
2022-10-30T16:03:29.878Z,15.60
2022-10-30T16:06:15.369Z,14.10
2022-10-30T16:08:48.147Z,21.60
2022-10-30T16:11:15.824Z,25.60
2022-10-30T16:13:42.774Z,21.70
2022-10-30T16:16:17.435Z,20.50
2022-10-30T16:18:44.260Z,18.70
2022-10-30T16:21:15.928Z,21.80
2022-10-30T16:23:52.171Z,25.50
2022-10-30T16:26:27.620Z,21.00
2022-10-30T16:28:54.161Z,22.70
2022-10-30T16:31:21.020Z,21.50
2022-10-30T16:33:48.772Z,22.40
2022-10-30T16:36:17.771Z,23.50
2022-10-30T16:38:47.488Z,24.40
2022-10-30T16:41:14.666Z,23.80
2022-10-30T16:43:43.478Z,40.20
2022-10-30T16:46:16.131Z,31.10
2022-10-30T16:48:57.980Z,30.20
2022-10-30T16:51:24.774Z,42.30
2022-10-30T16:53:52.947Z,34.30
2022-10-30T16:56:24.299Z,28.20
2022-10-30T16:58:53.426Z,27.90
2022-10-30T17:01:26.123Z,29.00
2022-10-30T17:03:54.376Z,33.10
2022-10-30T17:06:42.435Z,28.20
2022-10-30T17:09:19.803Z,34.30
2022-10-30T17:12:00.483Z,32.70
2022-10-30T17:14:27.013Z,30.70
2022-10-30T17:16:56.118Z,29.20
2022-10-30T17:19:32.014Z,29.30
2022-10-30T17:22:02.215Z,26.70
2022-10-30T17:24:33.147Z,28.20
2022-10-30T17:27:02.349Z,27.80
2022-10-30T17:29:38.146Z,30.20
2022-10-30T17:32:06.597Z,34.20
2022-10-30T17:34:39.040Z,31.10
2022-10-30T17:37:05.458Z,22.40
2022-10-30T17:39:31.914Z,23.30
2022-10-30T17:41:58.382Z,21.00
2022-10-30T17:44:26.265Z,21.20
2022-10-30T17:46:53.003Z,22.40
2022-10-30T17:49:26.745Z,22.40
2022-10-30T17:51:53.590Z,22.00
2022-10-30T17:54:20.919Z,20.80
2022-10-30T17:56:47.669Z,22.10
2022-10-30T17:59:14.714Z,22.00
2022-10-30T18:01:41.852Z,23.70
2022-10-30T18:04:21.324Z,26.00
2022-10-30T18:06:48.724Z,34.20
2022-10-30T18:09:15.259Z,43.40
2022-10-30T18:11:41.864Z,43.70
2022-10-30T18:14:11.310Z,43.70
2022-10-30T18:16:38.737Z,46.40
2022-10-30T18:19:10.554Z,49.20
2022-10-30T18:21:37.240Z,43.50
2022-10-30T18:24:10.498Z,45.70
2022-10-30T18:26:40.448Z,47.70
2022-10-30T18:29:08.752Z,45.50
2022-10-30T18:31:36.408Z,48.00
2022-10-30T18:34:03.583Z,52.10
2022-10-30T18:36:30.318Z,82.40
2022-10-30T18:38:56.853Z,69.30
2022-10-30T18:41:36.632Z,58.50
2022-10-30T18:44:04.109Z,60.00
2022-10-30T18:46:31.623Z,52.00
2022-10-30T18:48:58.268Z,52.40
2022-10-30T18:51:27.094Z,50.60
2022-10-30T18:53:54.229Z,46.60
2022-10-30T18:56:24.397Z,48.80
2022-10-30T18:58:54.925Z,70.10
2022-10-30T19:01:25.877Z,70.60
2022-10-30T19:03:52.967Z,82.50
2022-10-30T19:06:22.281Z,76.00
2022-10-30T19:08:49.257Z,82.20
2022-10-30T19:11:24.028Z,62.90
2022-10-30T19:13:52.557Z,73.70
2022-10-30T19:16:20.500Z,128.20
2022-10-30T19:18:47.561Z,117.30
2022-10-30T19:21:25.531Z,101.20
2022-10-30T19:23:52.832Z,91.50
2022-10-30T19:26:19.320Z,107.10
2022-10-30T19:28:46.121Z,68.30
2022-10-30T19:31:18.702Z,68.40
2022-10-30T19:33:46.469Z,69.40
2022-10-30T19:36:30.522Z,60.40
2022-10-30T19:38:57.522Z,58.00
2022-10-30T19:41:24.232Z,54.60
2022-10-30T19:43:50.891Z,46.50
2022-10-30T19:46:17.501Z,44.70
2022-10-30T19:49:00.124Z,39.00
2022-10-30T19:51:28.684Z,51.30
2022-10-30T19:53:55.451Z,49.70
2022-10-30T19:56:22.423Z,62.70
2022-10-30T19:58:49.760Z,60.70
2022-10-30T20:01:17.090Z,61.30
2022-10-30T20:03:43.993Z,64.60
2022-10-30T20:06:14.978Z,131.30
2022-10-30T20:08:41.772Z,79.60
2022-10-30T20:11:08.820Z,75.70
2022-10-30T20:13:35.808Z,73.80
2022-10-30T20:16:02.742Z,83.80
2022-10-30T20:18:31.885Z,78.80
2022-10-30T20:21:01.667Z,68.00
2022-10-30T20:23:28.896Z,67.40
2022-10-30T20:26:00.836Z,69.00
2022-10-30T20:28:40.380Z,76.50
2022-10-30T20:31:08.489Z,82.10
2022-10-30T20:33:35.225Z,68.80
2022-10-30T20:36:01.885Z,76.20
2022-10-30T20:38:32.504Z,50.30
2022-10-30T20:41:00.996Z,48.30
2022-10-30T20:43:30.398Z,42.70
2022-10-30T20:45:57.790Z,48.80
2022-10-30T20:48:24.700Z,45.30
2022-10-30T20:50:59.986Z,50.10
2022-10-30T20:53:27.150Z,50.90
2022-10-30T20:55:53.746Z,58.10
2022-10-30T20:58:21.429Z,63.50
2022-10-30T21:00:48.214Z,62.40
2022-10-30T21:03:15.109Z,57.30
2022-10-30T21:05:44.779Z,59.30
2022-10-30T21:08:13.040Z,60.30
2022-10-30T21:10:40.163Z,59.20
2022-10-30T21:13:09.477Z,57.90
2022-10-30T21:15:41.616Z,36.50
2022-10-30T21:18:08.968Z,59.90
2022-10-30T21:20:36.371Z,67.30
2022-10-30T21:23:03.008Z,67.00
2022-10-30T21:25:29.619Z,62.70
2022-10-30T21:27:57.119Z,57.60
2022-10-30T21:30:24.073Z,55.70
2022-10-30T21:32:50.610Z,56.60
2022-10-30T21:35:17.350Z,55.20
2022-10-30T21:37:43.893Z,48.10
2022-10-30T21:40:11.048Z,49.50
2022-10-30T21:42:37.492Z,51.70
2022-10-30T21:45:04.846Z,50.90
2022-10-30T21:47:31.386Z,54.90
2022-10-30T21:49:57.930Z,58.30
2022-10-30T21:52:24.474Z,51.00
2022-10-30T21:54:50.962Z,50.90
2022-10-30T21:57:17.448Z,48.50
2022-10-30T21:59:43.940Z,50.20
2022-10-30T22:02:14.672Z,49.10
2022-10-30T22:04:41.194Z,52.60
2022-10-30T22:07:07.920Z,51.20
2022-10-30T22:09:34.555Z,47.70
2022-10-30T22:12:00.984Z,44.00
2022-10-30T22:14:27.550Z,41.40
2022-10-30T22:16:54.054Z,39.70
2022-10-30T22:19:20.527Z,39.10
2022-10-30T22:21:46.959Z,42.20
2022-10-30T22:24:13.444Z,43.50
2022-10-30T22:26:39.940Z,41.70
2022-10-30T22:29:06.396Z,43.40
2022-10-30T22:31:33.037Z,42.90
2022-10-30T22:34:01.103Z,45.10
2022-10-30T22:36:30.194Z,45.40
2022-10-30T22:39:02.093Z,45.70
2022-10-30T22:41:34.523Z,49.10
2022-10-30T22:44:06.046Z,46.60
2022-10-30T22:46:32.540Z,48.20
2022-10-30T22:48:59.713Z,47.40
2022-10-30T22:51:26.640Z,46.70
2022-10-30T22:53:59.741Z,44.50
2022-10-30T22:56:29.448Z,40.70
2022-10-30T22:58:56.341Z,40.90
2022-10-30T23:01:28.692Z,40.50
2022-10-30T23:03:57.296Z,39.30
2022-10-30T23:06:24.419Z,39.90
2022-10-30T23:08:56.380Z,36.40
2022-10-30T23:11:23.956Z,36.50
2022-10-30T23:13:50.493Z,35.40
2022-10-30T23:16:20.418Z,36.40
2022-10-30T23:18:47.828Z,33.70
2022-10-30T23:21:20.786Z,35.50
2022-10-30T23:23:48.120Z,37.20
2022-10-30T23:26:16.028Z,37.30
2022-10-30T23:28:43.055Z,35.00
2022-10-30T23:31:23.616Z,37.40
2022-10-30T23:33:52.938Z,37.60
2022-10-30T23:36:20.809Z,38.00
2022-10-30T23:38:54.943Z,35.70
2022-10-30T23:41:23.399Z,38.20
2022-10-30T23:43:57.105Z,37.20
2022-10-30T23:46:24.266Z,38.40
2022-10-30T23:48:51.314Z,35.30
2022-10-30T23:51:18.609Z,37.60
2022-10-30T23:53:45.117Z,35.30
2022-10-30T23:56:12.169Z,36.60
2022-10-30T23:58:38.890Z,38.40
